createdAt,value
2017-11-07T00:02:06.042Z,2.60
2017-11-07T00:04:34.319Z,2.17
2017-11-07T00:07:03.423Z,2.20
2017-11-07T00:09:30.914Z,2.03
2017-11-07T00:11:58.446Z,1.83
2017-11-07T00:14:25.972Z,2.57
2017-11-07T00:16:54.235Z,2.40
2017-11-07T00:19:21.754Z,2.80
2017-11-07T00:21:50.189Z,2.03
2017-11-07T00:24:18.813Z,1.90
2017-11-07T00:26:47.170Z,2.50
2017-11-07T00:29:14.709Z,1.93
2017-11-07T00:31:42.998Z,2.37
2017-11-07T00:34:10.498Z,2.10
2017-11-07T00:36:38.037Z,2.70
2017-11-07T00:39:05.562Z,2.00
2017-11-07T00:41:34.379Z,5.93
2017-11-07T00:44:03.367Z,2.20
2017-11-07T00:46:31.919Z,2.47
2017-11-07T00:48:59.916Z,2.30
2017-11-07T00:51:28.703Z,2.00
2017-11-07T00:53:56.603Z,2.50
2017-11-07T00:56:24.742Z,3.00
2017-11-07T00:58:52.688Z,3.30
2017-11-07T01:01:20.681Z,2.30
2017-11-07T01:03:48.631Z,2.07
2017-11-07T01:06:16.466Z,4.40
2017-11-07T01:08:44.448Z,2.27
2017-11-07T01:11:13.471Z,2.90
2017-11-07T01:13:41.438Z,1.80
2017-11-07T01:16:10.430Z,2.47
2017-11-07T01:18:38.501Z,2.20
2017-11-07T01:21:07.393Z,2.27
2017-11-07T01:23:35.357Z,3.80
2017-11-07T01:26:04.348Z,3.90
2017-11-07T01:28:32.214Z,4.10
2017-11-07T01:31:00.181Z,4.00
2017-11-07T01:33:28.103Z,2.17
2017-11-07T01:35:56.062Z,5.03
2017-11-07T01:38:24.030Z,4.90
2017-11-07T01:40:53.973Z,1.97
2017-11-07T01:43:22.991Z,4.33
2017-11-07T01:45:52.259Z,2.20
2017-11-07T01:48:19.813Z,2.23
2017-11-07T01:50:49.353Z,2.60
2017-11-07T01:53:17.288Z,3.70
2017-11-07T01:55:45.288Z,5.00
2017-11-07T01:58:14.277Z,3.23
2017-11-07T02:00:42.245Z,2.17
2017-11-07T02:03:10.735Z,2.10
2017-11-07T02:05:39.617Z,3.43
2017-11-07T02:08:07.418Z,3.10
2017-11-07T02:10:35.721Z,2.40
2017-11-07T02:13:03.238Z,2.23
2017-11-07T02:15:30.757Z,3.13
2017-11-07T02:17:58.429Z,5.53
2017-11-07T02:20:25.978Z,2.47
2017-11-07T02:22:53.470Z,2.20
2017-11-07T02:25:20.985Z,2.40
2017-11-07T02:27:48.493Z,2.37
2017-11-07T02:30:17.978Z,8.23
2017-11-07T02:32:45.471Z,2.43
2017-11-07T02:35:12.995Z,3.43
2017-11-07T02:37:40.500Z,2.60
2017-11-07T02:40:08.795Z,2.93
2017-11-07T02:42:36.325Z,3.63
2017-11-07T02:45:04.661Z,2.97
2017-11-07T02:47:32.181Z,2.10
2017-11-07T02:49:59.682Z,3.73
2017-11-07T02:52:27.218Z,3.10
2017-11-07T02:54:54.730Z,2.77
2017-11-07T02:57:23.003Z,2.10
2017-11-07T02:59:51.300Z,3.10
2017-11-07T03:02:18.793Z,2.63
2017-11-07T03:04:46.310Z,2.70
2017-11-07T03:07:13.814Z,3.47
2017-11-07T03:09:41.342Z,2.80
2017-11-07T03:12:08.842Z,2.50
2017-11-07T03:14:36.359Z,5.43
2017-11-07T03:17:03.860Z,2.00
2017-11-07T03:19:31.478Z,3.50
2017-11-07T03:21:58.982Z,3.37
2017-11-07T03:24:26.484Z,2.10
2017-11-07T03:26:54.001Z,2.63
2017-11-07T03:29:22.285Z,2.43
2017-11-07T03:31:50.555Z,2.53
2017-11-07T03:34:18.857Z,3.33
2017-11-07T03:36:47.333Z,3.27
2017-11-07T03:39:14.850Z,3.00
2017-11-07T03:41:42.359Z,2.70
2017-11-07T03:44:09.885Z,2.60
2017-11-07T03:46:38.155Z,2.47
2017-11-07T03:49:06.439Z,4.43
2017-11-07T03:51:34.710Z,3.80
2017-11-07T03:54:03.902Z,3.63
2017-11-07T03:56:32.179Z,2.70
2017-11-07T03:59:00.474Z,2.40
2017-11-07T04:01:27.982Z,2.43
2017-11-07T04:03:55.510Z,3.00
2017-11-07T04:06:23.001Z,2.40
2017-11-07T04:08:50.526Z,2.80
2017-11-07T04:11:18.925Z,5.20
2017-11-07T04:13:46.442Z,4.33
2017-11-07T04:16:13.965Z,2.60
2017-11-07T04:18:42.246Z,3.33
2017-11-07T04:21:10.529Z,2.20
2017-11-07T04:23:38.789Z,4.63
2017-11-07T04:26:07.209Z,2.60
2017-11-07T04:28:34.703Z,2.70
2017-11-07T04:31:02.209Z,2.70
2017-11-07T04:33:29.726Z,2.13
2017-11-07T04:35:57.225Z,3.57
2017-11-07T04:38:24.746Z,3.83
2017-11-07T04:40:52.246Z,2.30
2017-11-07T04:43:19.760Z,2.43
2017-11-07T04:45:47.267Z,2.60
2017-11-07T04:48:14.783Z,2.73
2017-11-07T04:50:43.044Z,2.60
2017-11-07T04:53:10.566Z,3.10
2017-11-07T04:55:38.060Z,2.57
2017-11-07T04:58:05.566Z,2.40
2017-11-07T05:00:33.082Z,2.43
2017-11-07T05:03:01.350Z,3.00
2017-11-07T05:05:30.811Z,2.33
2017-11-07T05:07:58.313Z,2.73
2017-11-07T05:10:26.729Z,2.60
2017-11-07T05:12:54.233Z,2.77
2017-11-07T05:15:21.758Z,3.33
2017-11-07T05:17:50.203Z,3.07
2017-11-07T05:20:18.490Z,2.40
2017-11-07T05:22:45.994Z,4.30
2017-11-07T05:25:13.494Z,2.20
2017-11-07T05:27:41.782Z,2.00
2017-11-07T05:30:09.286Z,2.00
2017-11-07T05:32:36.814Z,2.43
2017-11-07T05:35:04.312Z,2.27
2017-11-07T05:37:31.838Z,2.50
2017-11-07T05:39:59.334Z,3.13
2017-11-07T05:42:26.850Z,2.20
2017-11-07T05:44:54.349Z,2.57
2017-11-07T05:47:22.614Z,2.00
2017-11-07T05:49:50.135Z,2.40
2017-11-07T05:52:17.630Z,1.70
2017-11-07T05:54:45.147Z,2.03
2017-11-07T05:57:12.655Z,1.97
2017-11-07T05:59:40.181Z,2.60
2017-11-07T06:02:07.677Z,2.33
2017-11-07T06:04:35.966Z,2.53
2017-11-07T06:07:03.461Z,2.63
2017-11-07T06:09:30.958Z,2.00
2017-11-07T06:12:01.255Z,2.47
2017-11-07T06:14:29.674Z,3.50
2017-11-07T06:16:57.942Z,7.20
2017-11-07T06:19:26.492Z,2.93
2017-11-07T06:21:55.349Z,2.83
2017-11-07T06:24:24.444Z,2.73
2017-11-07T06:26:52.514Z,2.83
2017-11-07T06:29:20.482Z,4.37
2017-11-07T06:31:48.553Z,2.77
2017-11-07T06:34:17.520Z,2.37
2017-11-07T06:36:46.534Z,2.40
2017-11-07T06:39:14.605Z,3.27
2017-11-07T06:41:42.577Z,8.10
2017-11-07T06:44:10.572Z,3.13
2017-11-07T06:46:38.610Z,3.20
2017-11-07T06:49:06.577Z,3.77
2017-11-07T06:51:34.549Z,7.43
2017-11-07T06:54:02.480Z,5.27
2017-11-07T06:56:30.654Z,2.90
2017-11-07T06:58:58.551Z,4.53
2017-11-07T07:01:26.620Z,5.20
2017-11-07T07:03:54.590Z,7.83
2017-11-07T07:06:22.575Z,3.90
2017-11-07T07:08:52.371Z,4.33
2017-11-07T07:11:20.312Z,4.57
2017-11-07T07:13:48.200Z,9.40
2017-11-07T07:16:16.924Z,2.80
2017-11-07T07:18:44.449Z,8.23
2017-11-07T07:21:11.950Z,10.00
2017-11-07T07:23:40.238Z,5.13
2017-11-07T07:26:08.501Z,6.97
2017-11-07T07:28:36.025Z,4.80
2017-11-07T07:31:03.525Z,11.90
2017-11-07T07:33:33.765Z,7.70
2017-11-07T07:36:01.280Z,17.40
2017-11-07T07:38:28.810Z,114.87
2017-11-07T07:40:56.309Z,134.87
2017-11-07T07:43:24.602Z,79.90
2017-11-07T07:45:52.890Z,63.73
2017-11-07T07:48:20.397Z,75.10
2017-11-07T07:50:47.922Z,73.50
2017-11-07T07:53:15.427Z,81.43
2017-11-07T07:55:42.957Z,82.10
2017-11-07T07:58:10.458Z,75.30
2017-11-07T08:00:39.673Z,72.73
2017-11-07T08:03:07.201Z,71.73
2017-11-07T08:05:35.470Z,73.13
2017-11-07T08:08:04.002Z,84.33
2017-11-07T08:10:31.502Z,81.33
2017-11-07T08:12:59.057Z,68.53
2017-11-07T08:15:26.568Z,68.07
2017-11-07T08:17:54.090Z,47.43
2017-11-07T08:20:22.361Z,49.57
2017-11-07T08:22:50.653Z,64.83
2017-11-07T08:25:18.926Z,55.67
2017-11-07T08:27:47.197Z,66.17
2017-11-07T08:30:17.437Z,59.67
2017-11-07T08:32:44.941Z,59.83
2017-11-07T08:35:12.464Z,53.93
2017-11-07T08:37:40.058Z,33.90
2017-11-07T08:40:09.534Z,39.10
2017-11-07T08:42:37.041Z,33.27
2017-11-07T08:45:05.333Z,34.13
2017-11-07T08:47:33.597Z,36.70
2017-11-07T08:50:01.890Z,39.47
2017-11-07T08:52:29.385Z,28.70
2017-11-07T08:54:56.885Z,36.70
2017-11-07T08:57:25.176Z,31.33
2017-11-07T08:59:52.677Z,27.13
2017-11-07T09:02:22.149Z,43.00
2017-11-07T09:04:49.698Z,24.73
2017-11-07T09:07:17.216Z,32.03
2017-11-07T09:09:44.725Z,39.63
2017-11-07T09:12:12.250Z,31.10
2017-11-07T09:14:40.521Z,29.10
2017-11-07T09:17:08.808Z,28.63
2017-11-07T09:19:37.073Z,21.37
2017-11-07T09:22:05.342Z,27.13
2017-11-07T09:24:35.581Z,28.17
2017-11-07T09:27:03.841Z,19.63
2017-11-07T09:29:32.122Z,19.70
2017-11-07T09:32:00.389Z,13.00
2017-11-07T09:34:28.690Z,27.40
2017-11-07T09:36:57.857Z,20.70
2017-11-07T09:39:26.156Z,17.00
2017-11-07T09:41:53.655Z,27.03
2017-11-07T09:44:23.127Z,23.80
2017-11-07T09:46:50.638Z,21.43
2017-11-07T09:49:18.147Z,19.00
2017-11-07T09:51:45.673Z,21.70
2017-11-07T09:54:13.934Z,14.37
2017-11-07T09:56:41.457Z,14.07
2017-11-07T09:59:09.898Z,20.23
2017-11-07T10:01:37.420Z,14.93
2017-11-07T10:04:04.923Z,18.10
2017-11-07T10:06:32.449Z,15.00
2017-11-07T10:09:00.712Z,15.17
2017-11-07T10:11:28.220Z,11.90
2017-11-07T10:13:55.742Z,14.17
2017-11-07T10:16:24.006Z,15.53
2017-11-07T10:18:51.526Z,17.50
2017-11-07T10:21:19.025Z,16.30
2017-11-07T10:23:47.339Z,11.93
2017-11-07T10:26:14.851Z,13.33
2017-11-07T10:28:42.373Z,10.57
2017-11-07T10:31:09.887Z,20.17
2017-11-07T10:33:39.101Z,14.97
2017-11-07T10:36:06.617Z,12.60
2017-11-07T10:38:34.885Z,11.90
2017-11-07T10:41:04.345Z,9.43
2017-11-07T10:43:31.854Z,11.73
2017-11-07T10:45:59.376Z,15.47
2017-11-07T10:48:26.881Z,15.70
2017-11-07T10:50:55.174Z,9.63
2017-11-07T10:53:22.670Z,8.80
2017-11-07T10:55:51.106Z,10.77
2017-11-07T10:58:18.630Z,10.90
2017-11-07T11:00:46.129Z,9.37
2017-11-07T11:03:13.661Z,10.87
2017-11-07T11:05:41.924Z,13.13
2017-11-07T11:08:09.457Z,11.17
2017-11-07T11:10:36.958Z,7.30
2017-11-07T11:13:05.241Z,9.53
2017-11-07T11:15:33.673Z,10.70
2017-11-07T11:18:02.163Z,9.00
2017-11-07T11:20:29.685Z,4.43
2017-11-07T11:22:58.128Z,9.43
2017-11-07T11:25:25.663Z,7.13
2017-11-07T11:27:54.669Z,8.83
2017-11-07T11:30:22.962Z,9.40
2017-11-07T11:32:50.462Z,5.00
2017-11-07T11:35:19.938Z,7.73
2017-11-07T11:37:47.438Z,6.27
2017-11-07T11:40:14.933Z,8.47
2017-11-07T11:42:42.449Z,9.43
2017-11-07T11:45:09.954Z,10.40
2017-11-07T11:47:39.477Z,6.40
2017-11-07T11:50:06.977Z,12.97
2017-11-07T11:52:34.494Z,8.63
2017-11-07T11:55:01.992Z,6.37
2017-11-07T11:57:31.453Z,5.23
2017-11-07T11:59:58.950Z,7.43
2017-11-07T12:02:26.475Z,7.03
2017-11-07T12:04:53.981Z,6.10
2017-11-07T12:07:23.218Z,7.67
2017-11-07T12:09:50.734Z,5.13
2017-11-07T12:12:19.009Z,5.87
2017-11-07T12:14:47.306Z,5.00
2017-11-07T12:17:14.805Z,9.27
2017-11-07T12:19:42.345Z,4.03
2017-11-07T12:22:10.781Z,4.37
2017-11-07T12:24:39.069Z,6.20
2017-11-07T12:27:06.565Z,5.10
2017-11-07T12:29:34.085Z,5.67
2017-11-07T12:32:01.586Z,5.30
2017-11-07T12:34:29.082Z,5.80
2017-11-07T12:36:57.369Z,4.70
2017-11-07T12:39:24.870Z,4.63
2017-11-07T12:41:52.394Z,6.70
2017-11-07T12:44:19.894Z,5.40
2017-11-07T12:46:47.421Z,7.97
2017-11-07T12:49:14.914Z,4.30
2017-11-07T12:51:54.289Z,6.20
2017-11-07T12:54:21.791Z,3.87
2017-11-07T12:56:49.310Z,5.27
2017-11-07T12:59:16.818Z,4.20
2017-11-07T13:01:44.341Z,4.93
2017-11-07T13:04:11.841Z,3.73
2017-11-07T13:06:39.337Z,4.60
2017-11-07T13:09:06.857Z,4.13
2017-11-07T13:11:34.353Z,3.80
2017-11-07T13:14:01.882Z,7.53
2017-11-07T13:16:30.150Z,4.00
2017-11-07T13:18:58.438Z,6.30
2017-11-07T13:21:26.707Z,4.83
2017-11-07T13:23:54.998Z,4.00
2017-11-07T13:26:23.266Z,4.17
2017-11-07T13:28:52.455Z,4.83
2017-11-07T13:31:20.721Z,4.43
2017-11-07T13:33:48.990Z,5.57
2017-11-07T13:36:16.521Z,6.50
2017-11-07T13:38:44.018Z,6.30
2017-11-07T13:41:12.305Z,5.70
2017-11-07T13:43:40.570Z,5.77
2017-11-07T13:46:08.854Z,6.20
2017-11-07T13:48:37.120Z,4.23
2017-11-07T13:51:05.405Z,3.50
2017-11-07T13:53:33.669Z,4.20
2017-11-07T13:56:01.957Z,5.17
2017-11-07T13:58:29.457Z,4.60
2017-11-07T14:00:56.958Z,4.70
2017-11-07T14:03:25.249Z,4.53
2017-11-07T14:05:52.745Z,4.57
2017-11-07T14:08:20.265Z,4.60
2017-11-07T14:10:48.725Z,4.70
2017-11-07T14:13:17.018Z,3.27
2017-11-07T14:15:44.522Z,5.00
2017-11-07T14:18:12.049Z,3.73
2017-11-07T14:20:39.546Z,4.33
2017-11-07T14:23:07.042Z,6.90
2017-11-07T14:25:34.557Z,3.53
2017-11-07T14:28:03.002Z,3.73
2017-11-07T14:30:30.521Z,4.43
2017-11-07T14:32:58.782Z,4.40
2017-11-07T14:35:26.302Z,4.90
2017-11-07T14:37:53.797Z,3.90
2017-11-07T14:40:21.317Z,3.90
2017-11-07T14:42:48.823Z,4.00
2017-11-07T14:45:17.090Z,4.60
2017-11-07T14:47:44.615Z,4.60
2017-11-07T14:50:12.606Z,3.50
2017-11-07T14:52:40.130Z,3.90
2017-11-07T14:55:07.625Z,3.20
2017-11-07T14:57:35.154Z,4.97
2017-11-07T15:00:02.657Z,6.80
2017-11-07T15:02:30.945Z,4.87
2017-11-07T15:04:58.457Z,4.37
2017-11-07T15:07:25.978Z,4.80
2017-11-07T15:09:53.501Z,5.03
2017-11-07T15:12:22.670Z,4.23
2017-11-07T15:14:50.186Z,5.27
2017-11-07T15:17:17.684Z,5.87
2017-11-07T15:19:45.205Z,4.03
2017-11-07T15:22:12.701Z,4.53
2017-11-07T15:24:40.221Z,5.47
2017-11-07T15:27:07.717Z,5.20
2017-11-07T15:29:35.209Z,3.87
2017-11-07T15:32:03.660Z,4.63
2017-11-07T15:34:31.926Z,5.13
2017-11-07T15:36:59.450Z,3.97
2017-11-07T15:39:26.949Z,4.60
2017-11-07T15:41:54.470Z,4.10
2017-11-07T15:44:21.971Z,3.90
2017-11-07T15:46:50.309Z,4.33
2017-11-07T15:49:17.810Z,9.00
2017-11-07T15:51:46.077Z,6.13
2017-11-07T15:54:14.366Z,4.23
2017-11-07T15:56:43.590Z,5.63
2017-11-07T15:59:12.081Z,3.97
2017-11-07T16:01:39.598Z,5.67
2017-11-07T16:04:07.882Z,4.40
2017-11-07T16:06:35.386Z,4.57
2017-11-07T16:09:02.910Z,4.30
2017-11-07T16:11:30.409Z,4.40
2017-11-07T16:13:58.872Z,4.50
2017-11-07T16:16:26.410Z,4.40
2017-11-07T16:18:53.913Z,4.20
2017-11-07T16:21:21.437Z,5.73
2017-11-07T16:23:48.939Z,4.23
2017-11-07T16:26:17.222Z,4.40
2017-11-07T16:28:45.486Z,4.17
2017-11-07T16:31:13.002Z,4.40
2017-11-07T16:33:40.497Z,4.90
2017-11-07T16:36:07.998Z,4.17
2017-11-07T16:38:35.518Z,4.33
2017-11-07T16:41:03.814Z,5.87
2017-11-07T16:43:31.330Z,4.83
2017-11-07T16:45:58.825Z,5.10
2017-11-07T16:48:26.350Z,3.50
2017-11-07T16:50:53.869Z,4.60
2017-11-07T16:53:21.831Z,4.50
2017-11-07T16:55:49.325Z,4.20
2017-11-07T16:58:16.846Z,5.03
2017-11-07T17:00:44.345Z,6.97
2017-11-07T17:03:11.865Z,4.60
2017-11-07T17:05:39.358Z,4.47
2017-11-07T17:08:06.877Z,5.47
2017-11-07T17:10:34.377Z,6.27
2017-11-07T17:13:01.893Z,5.07
2017-11-07T17:15:29.389Z,5.17
2017-11-07T17:17:56.893Z,5.90
2017-11-07T17:20:24.418Z,5.07
2017-11-07T17:22:52.677Z,5.00
2017-11-07T17:25:20.198Z,4.40
2017-11-07T17:27:47.705Z,6.40
2017-11-07T17:30:16.010Z,5.50
2017-11-07T17:32:44.490Z,4.57
2017-11-07T17:35:12.005Z,4.60
2017-11-07T17:37:39.525Z,4.03
2017-11-07T17:40:07.018Z,5.57
2017-11-07T17:42:36.482Z,4.50
2017-11-07T17:45:03.978Z,4.93
2017-11-07T17:47:31.497Z,4.37
2017-11-07T17:49:59.003Z,6.10
2017-11-07T17:52:27.285Z,7.53
2017-11-07T17:54:55.545Z,5.07
2017-11-07T17:57:23.050Z,5.40
2017-11-07T17:59:50.569Z,8.10
2017-11-07T18:02:18.842Z,5.17
2017-11-07T18:04:47.126Z,5.13
2017-11-07T18:07:15.393Z,5.03
2017-11-07T18:09:43.681Z,8.60
2017-11-07T18:12:11.945Z,7.77
2017-11-07T18:14:41.183Z,4.73
2017-11-07T18:17:08.702Z,5.20
2017-11-07T18:19:36.973Z,4.70
2017-11-07T18:22:05.262Z,9.20
2017-11-07T18:24:32.757Z,5.03
2017-11-07T18:27:00.277Z,5.67
2017-11-07T18:29:28.537Z,5.97
2017-11-07T18:31:56.830Z,5.80
2017-11-07T18:34:24.325Z,5.63
2017-11-07T18:36:51.827Z,5.10
2017-11-07T18:39:20.119Z,4.40
2017-11-07T18:41:47.621Z,4.50
2017-11-07T18:44:18.128Z,5.70
2017-11-07T18:46:45.621Z,10.60
2017-11-07T18:49:13.137Z,16.57
2017-11-07T18:51:40.861Z,10.70
2017-11-07T18:54:08.699Z,7.77
2017-11-07T18:56:36.631Z,11.00
2017-11-07T18:59:04.702Z,11.00
2017-11-07T19:01:32.670Z,10.47
2017-11-07T19:04:01.663Z,8.30
2017-11-07T19:06:29.527Z,10.17
2017-11-07T19:08:57.447Z,11.13
2017-11-07T19:11:25.564Z,10.30
2017-11-07T19:13:53.250Z,5.57
2017-11-07T19:16:22.639Z,8.80
2017-11-07T19:18:52.346Z,11.00
2017-11-07T19:21:19.898Z,5.73
2017-11-07T19:23:47.434Z,10.73
2017-11-07T19:26:14.973Z,7.50
2017-11-07T19:28:43.242Z,8.73
2017-11-07T19:31:11.630Z,9.90
2017-11-07T19:33:39.917Z,7.63
2017-11-07T19:36:07.496Z,6.83
2017-11-07T19:38:35.043Z,6.00
2017-11-07T19:41:02.542Z,5.13
2017-11-07T19:43:30.087Z,6.90
2017-11-07T19:45:57.589Z,11.27
2017-11-07T19:48:25.880Z,11.30
2017-11-07T19:50:53.388Z,7.93
2017-11-07T19:53:20.898Z,15.03
2017-11-07T19:55:48.413Z,6.57
2017-11-07T19:58:16.882Z,8.40
2017-11-07T20:00:44.415Z,10.50
2017-11-07T20:03:11.942Z,11.13
2017-11-07T20:05:39.459Z,6.80
2017-11-07T20:08:06.962Z,6.63
2017-11-07T20:10:34.497Z,8.23
2017-11-07T20:13:02.776Z,6.13
2017-11-07T20:15:31.070Z,11.93
2017-11-07T20:17:58.592Z,5.90
2017-11-07T20:20:26.098Z,6.03
2017-11-07T20:22:53.627Z,5.47
2017-11-07T20:25:22.098Z,5.20
2017-11-07T20:27:50.394Z,6.50
2017-11-07T20:30:17.902Z,6.70
2017-11-07T20:32:45.431Z,13.47
2017-11-07T20:35:12.974Z,9.70
2017-11-07T20:37:40.478Z,11.17
2017-11-07T20:40:09.835Z,8.30
2017-11-07T20:42:37.338Z,8.63
2017-11-07T20:45:04.866Z,11.47
2017-11-07T20:47:32.371Z,13.57
2017-11-07T20:50:00.657Z,8.50
2017-11-07T20:52:28.913Z,5.83
2017-11-07T20:54:56.437Z,5.70
2017-11-07T20:57:24.803Z,10.57
2017-11-07T20:59:52.334Z,6.47
2017-11-07T21:02:19.833Z,6.97
2017-11-07T21:04:47.364Z,9.93
2017-11-07T21:07:14.863Z,6.43
2017-11-07T21:09:42.386Z,6.73
2017-11-07T21:12:10.850Z,7.50
2017-11-07T21:14:38.378Z,5.13
2017-11-07T21:17:06.638Z,6.13
2017-11-07T21:19:37.962Z,7.43
2017-11-07T21:22:05.473Z,6.90
2017-11-07T21:24:33.009Z,7.70
2017-11-07T21:27:01.290Z,6.40
2017-11-07T21:29:29.562Z,6.60
2017-11-07T21:31:57.979Z,6.90
2017-11-07T21:34:25.516Z,6.80
2017-11-07T21:36:53.026Z,14.43
2017-11-07T21:39:20.546Z,6.57
2017-11-07T21:41:48.116Z,5.90
2017-11-07T21:44:15.706Z,7.90
2017-11-07T21:46:44.144Z,9.50
2017-11-07T21:49:11.721Z,6.70
2017-11-07T21:51:39.230Z,7.43
2017-11-07T21:54:07.517Z,5.60
2017-11-07T21:56:35.043Z,6.43
2017-11-07T21:59:02.537Z,5.70
2017-11-07T22:01:30.082Z,6.63
2017-11-07T22:03:58.345Z,6.43
2017-11-07T22:06:26.720Z,5.97
2017-11-07T22:08:55.063Z,5.37
2017-11-07T22:11:23.520Z,8.73
2017-11-07T22:13:51.283Z,8.33
2017-11-07T22:16:18.830Z,7.97
2017-11-07T22:18:47.810Z,6.37
2017-11-07T22:21:15.334Z,5.37
2017-11-07T22:23:43.806Z,7.27
2017-11-07T22:26:11.353Z,6.40
2017-11-07T22:28:38.858Z,5.43
2017-11-07T22:31:07.121Z,7.53
2017-11-07T22:33:35.415Z,7.63
2017-11-07T22:36:02.923Z,4.53
2017-11-07T22:38:30.598Z,6.40
2017-11-07T22:40:58.162Z,5.90
2017-11-07T22:43:26.417Z,6.30
2017-11-07T22:45:53.940Z,6.00
2017-11-07T22:48:21.462Z,6.90
2017-11-07T22:50:49.726Z,5.03
2017-11-07T22:53:17.216Z,6.50
2017-11-07T22:55:44.732Z,5.10
2017-11-07T22:58:13.167Z,5.23
2017-11-07T23:00:41.040Z,4.80
2017-11-07T23:03:09.922Z,5.60
2017-11-07T23:05:39.501Z,5.37
2017-11-07T23:08:07.289Z,4.47
2017-11-07T23:10:36.806Z,5.97
2017-11-07T23:13:06.073Z,5.83
2017-11-07T23:15:33.733Z,6.07
2017-11-07T23:18:01.332Z,5.47
2017-11-07T23:20:28.998Z,6.50
2017-11-07T23:22:56.839Z,6.40
2017-11-07T23:25:24.501Z,7.03
2017-11-07T23:27:52.042Z,5.90
2017-11-07T23:30:19.545Z,5.17
2017-11-07T23:32:47.050Z,7.30
2017-11-07T23:35:14.581Z,5.13
2017-11-07T23:37:42.850Z,5.10
2017-11-07T23:40:10.366Z,6.33
2017-11-07T23:42:38.553Z,5.00
2017-11-07T23:45:06.098Z,5.07
2017-11-07T23:47:33.590Z,5.17
2017-11-07T23:50:07.641Z,5.97
2017-11-07T23:52:36.085Z,5.97
2017-11-07T23:55:03.606Z,5.20
2017-11-07T23:57:31.127Z,5.77
2017-11-07T23:59:58.617Z,5.70
